Time;durP1;ratioP1;P1;durP2;ratioP2;P2;SDS_P1;SDS_P2;PMS_P1;PMS_P2;Temp;Humidity;BMP_temperature;BMP_pressure;BME280_temperature;BME280_humidity;BME280_pressure;Samples;Min_cycle;Max_cycle;Signal;HPM_P1;HPM_P2
2023/01/17 00:00:18;;;;;;;0.50;0.30;;;;;;;;;;6247159;23;20011;-72
2023/01/17 00:02:44;;;;;;;0.83;0.30;;;;;;;;;;6246983;23;20000;-72
2023/01/17 00:10:40;;;;;;;0.30;0.20;;;;;;;;;;6247310;23;20480;-72
2023/01/17 00:13:06;;;;;;;0.30;0.20;;;;;;;;;;6245261;23;20074;-73
2023/01/17 00:15:32;;;;;;;0.43;0.33;;;;;;;;;;6246862;23;20000;-73
2023/01/17 00:17:58;;;;;;;0.53;0.30;;;;;;;;;;6245178;23;20467;-73
2023/01/17 00:26:03;;;;;;;0.30;0.20;;;;;;;;;;6246785;23;20015;-72
2023/01/17 01:35:25;;;;;;;1.30;1.00;;;;;;;;;;6215990;23;20059;-73
2023/01/17 01:37:51;;;;;;;2.87;1.10;;;;;;;;;;6189239;23;20016;-73
2023/01/17 01:40:18;;;;;;;1.77;1.13;;;;;;;;;;6189405;23;20008;-73
2023/01/17 01:42:51;;;;;;;1.63;1.10;;;;;;;;;;6189349;23;20087;-73
2023/01/17 01:45:27;;;;;;;1.53;1.23;;;;;;;;;;6215656;23;20001;-73
2023/01/17 01:47:55;;;;;;;2.50;1.40;;;;;;;;;;6215763;23;20001;-73
2023/01/17 01:50:21;;;;;;;2.73;1.70;;;;;;;;;;6215680;23;20047;-73
2023/01/17 01:52:51;;;;;;;4.30;1.30;;;;;;;;;;6215856;23;20076;-73
2023/01/17 01:55:19;;;;;;;2.83;1.47;;;;;;;;;;6215902;23;20048;-73
2023/01/17 01:57:46;;;;;;;3.80;1.47;;;;;;;;;;6187620;23;20001;-74
2023/01/17 02:00:13;;;;;;;2.57;1.53;;;;;;;;;;6185637;23;20432;-73
2023/01/17 02:02:40;;;;;;;2.17;1.70;;;;;;;;;;6211795;23;20008;-73
2023/01/17 02:05:06;;;;;;;4.87;1.60;;;;;;;;;;6213430;23;20004;-73
2023/01/17 02:07:54;;;;;;;2.80;1.50;;;;;;;;;;6188445;23;20444;-73
2023/01/17 02:10:20;;;;;;;3.30;1.60;;;;;;;;;;6215555;23;20005;-73
2023/01/17 02:12:46;;;;;;;6.93;2.53;;;;;;;;;;6215139;23;20009;-72
2023/01/17 02:15:12;;;;;;;2.20;1.70;;;;;;;;;;6215373;23;20019;-73
2023/01/17 02:17:47;;;;;;;2.10;1.67;;;;;;;;;;6215456;23;20001;-73
2023/01/17 02:20:20;;;;;;;2.60;1.80;;;;;;;;;;6214772;23;20005;-74
2023/01/17 02:22:58;;;;;;;2.30;2.10;;;;;;;;;;6215511;23;20062;-74
2023/01/17 02:25:44;;;;;;;2.73;2.03;;;;;;;;;;6189205;23;20278;-73
2023/01/17 02:28:22;;;;;;;3.60;2.23;;;;;;;;;;6153801;23;20044;-73
2023/01/17 02:30:51;;;;;;;2.93;1.90;;;;;;;;;;6215657;23;20001;-73
2023/01/17 02:33:24;;;;;;;3.20;2.23;;;;;;;;;;6215064;23;20012;-74
2023/01/17 02:36:10;;;;;;;6.10;2.58;;;;;;;;;;6215426;23;20023;-73
2023/01/17 02:38:39;;;;;;;4.00;2.00;;;;;;;;;;6199727;23;20036;-74
2023/01/17 02:41:12;;;;;;;3.67;2.23;;;;;;;;;;6214977;23;20028;-73
2023/01/17 02:43:38;;;;;;;4.18;2.67;;;;;;;;;;6214832;23;20001;-73
2023/01/17 02:46:04;;;;;;;2.20;1.83;;;;;;;;;;6215469;23;20050;-73
2023/01/17 02:48:32;;;;;;;3.07;2.20;;;;;;;;;;6215200;23;20070;-73
2023/01/17 02:51:07;;;;;;;2.97;2.40;;;;;;;;;;6215845;23;20001;-73
2023/01/17 02:53:52;;;;;;;2.93;2.40;;;;;;;;;;6213368;23;20490;-73
2023/01/17 02:56:36;;;;;;;3.57;2.00;;;;;;;;;;6213402;23;20004;-73
2023/01/17 02:59:33;;;;;;;2.43;1.67;;;;;;;;;;6215104;23;20488;-73
2023/01/17 03:02:05;;;;;;;3.03;2.30;;;;;;;;;;6213371;23;20335;-74
2023/01/17 03:04:44;;;;;;;3.75;2.17;;;;;;;;;;6215294;23;20012;-73
2023/01/17 03:07:15;;;;;;;2.83;2.40;;;;;;;;;;6215297;23;20008;-73
2023/01/17 03:09:42;;;;;;;6.17;2.33;;;;;;;;;;6213578;23;20005;-73
2023/01/17 03:12:09;;;;;;;2.63;2.00;;;;;;;;;;6214544;23;20040;-73
2023/01/17 03:14:35;;;;;;;3.60;2.20;;;;;;;;;;6215058;23;20007;-73
2023/01/17 03:17:01;;;;;;;2.93;2.10;;;;;;;;;;6215053;23;20001;-73
2023/01/17 03:19:27;;;;;;;2.77;2.13;;;;;;;;;;6216356;23;20004;-73
2023/01/17 03:21:53;;;;;;;2.50;1.90;;;;;;;;;;6216978;23;20008;-73
2023/01/17 03:24:19;;;;;;;2.47;1.70;;;;;;;;;;6216750;23;20083;-73
2023/01/17 03:26:46;;;;;;;2.17;1.73;;;;;;;;;;6226230;23;20019;-74
2023/01/17 03:29:12;;;;;;;2.90;1.90;;;;;;;;;;6247556;23;20007;-73
2023/01/17 03:31:38;;;;;;;4.00;2.10;;;;;;;;;;6247450;23;20008;-74
2023/01/17 03:34:04;;;;;;;3.33;1.83;;;;;;;;;;6246720;23;20497;-73
2023/01/17 03:36:31;;;;;;;4.83;2.03;;;;;;;;;;6245403;23;20005;-74
2023/01/17 03:38:57;;;;;;;2.40;1.60;;;;;;;;;;6245285;23;20004;-73
2023/01/17 03:41:23;;;;;;;4.13;1.90;;;;;;;;;;6247504;23;19996;-73
2023/01/17 03:43:49;;;;;;;2.37;1.37;;;;;;;;;;6247105;23;20007;-72
2023/01/17 03:46:20;;;;;;;4.87;2.27;;;;;;;;;;6247340;23;20005;-73
2023/01/17 03:48:46;;;;;;;2.33;1.80;;;;;;;;;;6247042;23;20004;-73
2023/01/17 03:51:12;;;;;;;1.97;1.60;;;;;;;;;;6246847;23;20485;-74
2023/01/17 03:53:38;;;;;;;2.30;1.63;;;;;;;;;;6220256;23;20034;-73
2023/01/17 03:56:04;;;;;;;3.10;1.97;;;;;;;;;;6247127;23;19997;-72
2023/01/17 03:58:30;;;;;;;2.30;1.73;;;;;;;;;;6247090;23;20364;-73
2023/01/17 04:00:56;;;;;;;2.87;1.67;;;;;;;;;;6246899;23;20003;-73
2023/01/17 04:03:22;;;;;;;3.40;1.80;;;;;;;;;;6244980;23;20000;-73
2023/01/17 04:05:48;;;;;;;3.43;2.13;;;;;;;;;;6246925;23;20046;-73
2023/01/17 04:08:14;;;;;;;5.17;2.30;;;;;;;;;;6246869;23;20035;-73
2023/01/17 04:10:40;;;;;;;3.50;2.73;;;;;;;;;;6220255;23;19997;-73
2023/01/17 04:13:06;;;;;;;3.93;2.10;;;;;;;;;;6246416;23;20039;-73
2023/01/17 04:15:33;;;;;;;4.23;2.30;;;;;;;;;;6246902;23;20050;-73
2023/01/17 04:17:59;;;;;;;2.47;1.80;;;;;;;;;;6246962;23;20367;-73
2023/01/17 04:20:35;;;;;;;3.57;1.60;;;;;;;;;;6247146;23;20000;-73
2023/01/17 04:23:01;;;;;;;2.63;1.70;;;;;;;;;;6246658;23;20004;-73
2023/01/17 04:25:29;;;;;;;3.90;1.70;;;;;;;;;;6246797;23;20001;-72
2023/01/17 04:27:56;;;;;;;2.20;1.67;;;;;;;;;;6246551;23;20012;-72
2023/01/17 04:30:22;;;;;;;2.57;1.70;;;;;;;;;;6246639;23;19996;-73
2023/01/17 04:32:48;;;;;;;3.53;2.23;;;;;;;;;;6246261;23;20454;-73
2023/01/17 04:35:14;;;;;;;2.97;1.90;;;;;;;;;;6244701;23;20058;-73
2023/01/17 04:37:40;;;;;;;2.00;1.60;;;;;;;;;;6246496;23;20023;-73
2023/01/17 04:40:07;;;;;;;2.53;1.77;;;;;;;;;;6246784;23;20003;-72
2023/01/17 04:42:33;;;;;;;2.57;1.57;;;;;;;;;;6246818;23;20049;-74
2023/01/17 04:44:59;;;;;;;4.23;2.00;;;;;;;;;;6246811;23;20079;-73
2023/01/17 04:47:25;;;;;;;3.77;1.87;;;;;;;;;;6246353;23;20079;-73
2023/01/17 04:49:51;;;;;;;4.03;2.07;;;;;;;;;;6246690;23;20007;-73
2023/01/17 04:52:20;;;;;;;3.20;2.20;;;;;;;;;;6246676;23;20393;-73
2023/01/17 04:54:49;;;;;;;2.80;1.90;;;;;;;;;;6219588;23;20449;-73
2023/01/17 04:57:16;;;;;;;2.67;1.80;;;;;;;;;;6246418;23;20004;-73
2023/01/17 04:59:42;;;;;;;6.10;2.07;;;;;;;;;;6246539;23;19996;-72
2023/01/17 05:02:08;;;;;;;2.93;2.37;;;;;;;;;;6246930;23;20327;-73
2023/01/17 05:04:34;;;;;;;4.73;2.20;;;;;;;;;;6246654;23;20298;-72
2023/01/17 05:07:00;;;;;;;3.17;1.97;;;;;;;;;;6246363;23;20004;-72
2023/01/17 05:09:26;;;;;;;4.10;2.70;;;;;;;;;;6246588;23;20004;-72
2023/01/17 05:11:54;;;;;;;3.97;2.60;;;;;;;;;;6246023;23;20408;-72
2023/01/17 05:14:20;;;;;;;2.40;1.90;;;;;;;;;;6246355;23;20011;-72
2023/01/17 05:16:46;;;;;;;4.73;2.00;;;;;;;;;;6246667;23;20004;-72
2023/01/17 05:19:12;;;;;;;2.83;2.30;;;;;;;;;;6246433;23;20001;-73
2023/01/17 05:21:38;;;;;;;5.07;2.70;;;;;;;;;;6246419;23;20003;-73
2023/01/17 05:24:05;;;;;;;3.87;2.17;;;;;;;;;;6246135;23;20079;-73
2023/01/17 05:26:31;;;;;;;6.33;2.50;;;;;;;;;;6246358;23;20008;-72
2023/01/17 05:28:57;;;;;;;3.10;2.60;;;;;;;;;;6246253;23;20011;-72
2023/01/17 05:31:23;;;;;;;4.27;2.80;;;;;;;;;;6246400;23;20006;-73
2023/01/17 05:33:49;;;;;;;4.40;3.30;;;;;;;;;;6246128;23;20011;-73
2023/01/17 05:36:15;;;;;;;7.43;4.93;;;;;;;;;;6246241;23;20078;-72
2023/01/17 05:38:41;;;;;;;6.97;4.87;;;;;;;;;;6245992;23;20000;-72
2023/01/17 05:41:07;;;;;;;7.50;4.80;;;;;;;;;;6245754;23;20075;-73
2023/01/17 05:43:33;;;;;;;4.80;4.00;;;;;;;;;;6246016;23;20058;-72
2023/01/17 05:45:59;;;;;;;5.57;3.90;;;;;;;;;;6246572;23;19996;-73
2023/01/17 05:48:25;;;;;;;5.13;2.97;;;;;;;;;;6246048;23;20000;-72
2023/01/17 05:50:51;;;;;;;3.60;2.97;;;;;;;;;;6246093;23;20027;-72
2023/01/17 05:53:17;;;;;;;6.40;2.77;;;;;;;;;;6245879;23;20348;-73
2023/01/17 05:55:43;;;;;;;3.87;3.00;;;;;;;;;;6245968;23;20007;-72
2023/01/17 05:58:13;;;;;;;3.63;3.10;;;;;;;;;;6246034;23;20364;-72
2023/01/17 06:00:39;;;;;;;4.47;3.10;;;;;;;;;;6246164;23;20073;-73
2023/01/17 06:03:05;;;;;;;4.27;2.80;;;;;;;;;;6245733;23;20007;-72
2023/01/17 06:05:31;;;;;;;4.53;3.37;;;;;;;;;;6246032;23;20331;-72
2023/01/17 06:07:57;;;;;;;5.87;3.40;;;;;;;;;;6245857;23;20323;-73
2023/01/17 06:10:24;;;;;;;7.47;3.43;;;;;;;;;;6245660;23;20004;-72
2023/01/17 06:12:59;;;;;;;5.83;3.53;;;;;;;;;;6245232;23;20431;-72
2023/01/17 06:15:25;;;;;;;4.50;3.53;;;;;;;;;;6246576;23;20503;-73
2023/01/17 06:17:51;;;;;;;7.20;4.27;;;;;;;;;;6245694;23;20000;-72
2023/01/17 06:20:17;;;;;;;7.57;5.47;;;;;;;;;;6245670;23;20031;-73
2023/01/17 06:22:43;;;;;;;7.30;4.13;;;;;;;;;;6246030;23;20004;-72
2023/01/17 06:25:10;;;;;;;7.77;4.10;;;;;;;;;;6245981;23;20011;-72
2023/01/17 06:27:36;;;;;;;5.77;3.37;;;;;;;;;;6243493;23;20016;-72
2023/01/17 06:30:02;;;;;;;4.57;3.17;;;;;;;;;;6245260;23;20000;-73
2023/01/17 06:32:28;;;;;;;4.40;3.20;;;;;;;;;;6245325;23;20008;-72
2023/01/17 06:34:54;;;;;;;4.33;2.90;;;;;;;;;;6245276;23;20308;-72
2023/01/17 06:52:03;;;;;;;6.57;3.57;;;;;;;;;;5090013;27;20389;-66
2023/01/17 06:54:30;;;;;;;5.50;3.70;;;;;;;;;;5089658;28;20318;-67
2023/01/17 06:56:56;;;;;;;8.73;3.70;;;;;;;;;;5090012;28;20420;-66
2023/01/17 06:59:22;;;;;;;6.53;3.53;;;;;;;;;;5089727;28;20448;-66
2023/01/17 07:01:48;;;;;;;6.20;3.57;;;;;;;;;;5089438;28;20032;-68
2023/01/17 07:04:14;;;;;;;8.70;5.13;;;;;;;;;;5089410;28;20610;-67
2023/01/17 07:06:40;;;;;;;6.33;4.50;;;;;;;;;;5089202;28;20507;-67
2023/01/17 07:09:06;;;;;;;8.43;4.80;;;;;;;;;;5087554;28;20374;-70
2023/01/17 07:11:32;;;;;;;6.97;4.83;;;;;;;;;;5088919;28;20059;-69
2023/01/17 07:13:58;;;;;;;7.73;5.00;;;;;;;;;;5071366;28;20020;-70
2023/01/17 07:16:25;;;;;;;5.93;4.67;;;;;;;;;;5089106;28;20505;-69
2023/01/17 07:18:52;;;;;;;7.83;5.70;;;;;;;;;;5085969;28;20024;-68
2023/01/17 07:21:18;;;;;;;8.57;5.97;;;;;;;;;;5086930;28;20081;-69
2023/01/17 07:23:45;;;;;;;8.77;5.93;;;;;;;;;;5088532;28;20036;-68
2023/01/17 07:26:11;;;;;;;8.57;5.77;;;;;;;;;;5090154;28;20530;-68
2023/01/17 07:28:37;;;;;;;12.00;5.80;;;;;;;;;;5090055;28;20173;-69
2023/01/17 07:31:06;;;;;;;9.63;5.63;;;;;;;;;;5089316;28;20396;-68
2023/01/17 07:33:36;;;;;;;7.37;4.80;;;;;;;;;;5071345;28;20461;-68
2023/01/17 07:36:04;;;;;;;7.00;4.80;;;;;;;;;;5089895;28;20028;-68
2023/01/17 07:38:30;;;;;;;7.37;4.70;;;;;;;;;;5090109;28;20050;-68
2023/01/17 07:41:29;;;;;;;7.63;4.83;;;;;;;;;;5087885;28;20047;-68
2023/01/17 07:43:55;;;;;;;9.03;5.07;;;;;;;;;;5086831;28;20029;-68
2023/01/17 07:46:22;;;;;;;7.00;4.37;;;;;;;;;;5088861;28;20031;-68
2023/01/17 07:48:48;;;;;;;7.93;5.10;;;;;;;;;;5090110;28;20377;-68
2023/01/17 07:51:14;;;;;;;8.63;4.67;;;;;;;;;;5085638;28;20474;-68
2023/01/17 07:53:41;;;;;;;7.47;4.93;;;;;;;;;;5075984;28;20017;-68
2023/01/17 07:56:08;;;;;;;6.73;4.80;;;;;;;;;;5075690;28;20028;-68
2023/01/17 07:58:41;;;;;;;11.70;6.20;;;;;;;;;;5076077;28;20385;-69
2023/01/17 08:01:09;;;;;;;12.23;7.27;;;;;;;;;;5075474;28;20028;-69
2023/01/17 08:03:39;;;;;;;11.67;6.87;;;;;;;;;;5075332;28;20671;-69
2023/01/17 08:06:06;;;;;;;9.90;7.20;;;;;;;;;;5075418;28;20146;-69
2023/01/17 08:08:58;;;;;;;12.53;7.90;;;;;;;;;;5075265;28;20491;-69
2023/01/17 08:11:31;;;;;;;12.40;8.18;;;;;;;;;;5053087;28;20055;-68
2023/01/17 08:14:01;;;;;;;10.70;7.73;;;;;;;;;;5057325;28;20047;-69
2023/01/17 08:16:30;;;;;;;13.70;8.60;;;;;;;;;;5073831;28;20640;-68
2023/01/17 08:18:57;;;;;;;11.67;7.73;;;;;;;;;;5074474;28;20029;-68
2023/01/17 08:21:24;;;;;;;13.87;8.67;;;;;;;;;;5056212;28;20332;-68
2023/01/17 08:23:51;;;;;;;13.33;8.17;;;;;;;;;;5056575;28;20363;-68
2023/01/17 08:26:21;;;;;;;11.40;7.37;;;;;;;;;;4994394;28;20132;-68
2023/01/17 08:28:59;;;;;;;9.07;6.33;;;;;;;;;;5034132;28;20032;-68
2023/01/17 08:31:25;;;;;;;10.77;6.47;;;;;;;;;;5016980;28;20421;-68
2023/01/17 08:33:51;;;;;;;9.03;6.17;;;;;;;;;;5034174;28;20390;-67
2023/01/17 08:36:18;;;;;;;15.10;6.43;;;;;;;;;;5016557;28;20029;-68
2023/01/17 08:38:44;;;;;;;7.70;5.07;;;;;;;;;;5034311;28;20027;-69
2023/01/17 08:41:11;;;;;;;7.17;5.57;;;;;;;;;;5016591;28;20394;-68
2023/01/17 08:43:37;;;;;;;10.80;5.53;;;;;;;;;;5034657;28;20029;-68
2023/01/17 08:46:05;;;;;;;10.80;6.00;;;;;;;;;;5034302;28;20390;-68
2023/01/17 08:48:31;;;;;;;8.43;5.70;;;;;;;;;;5034222;28;20474;-71
2023/01/17 08:51:01;;;;;;;11.50;5.87;;;;;;;;;;5016232;28;20054;-68
2023/01/17 08:53:27;;;;;;;9.07;5.50;;;;;;;;;;5034095;28;20040;-69
2023/01/17 08:55:57;;;;;;;10.73;6.13;;;;;;;;;;5034339;28;20033;-68
2023/01/17 08:58:23;;;;;;;9.20;6.20;;;;;;;;;;5016616;28;20452;-68
2023/01/17 09:00:49;;;;;;;11.83;6.30;;;;;;;;;;5034219;28;20506;-68
2023/01/17 09:03:15;;;;;;;9.13;5.70;;;;;;;;;;5033280;28;20097;-68
2023/01/17 09:05:41;;;;;;;10.13;6.53;;;;;;;;;;5033984;28;20036;-68
2023/01/17 09:08:08;;;;;;;12.97;6.90;;;;;;;;;;5034618;28;20030;-68
2023/01/17 09:10:34;;;;;;;13.70;7.13;;;;;;;;;;5034795;28;20427;-68
2023/01/17 09:13:00;;;;;;;12.50;6.07;;;;;;;;;;5034937;28;20379;-66
2023/01/17 09:15:26;;;;;;;10.23;5.50;;;;;;;;;;5034711;28;20077;-66
2023/01/17 09:17:56;;;;;;;12.93;5.90;;;;;;;;;;5034141;28;20077;-66
2023/01/17 09:20:22;;;;;;;10.83;4.97;;;;;;;;;;5016460;28;20451;-67
2023/01/17 09:22:49;;;;;;;7.27;4.30;;;;;;;;;;5034371;28;20021;-66
2023/01/17 09:25:15;;;;;;;7.87;4.77;;;;;;;;;;5034135;28;20025;-66
2023/01/17 09:28:06;;;;;;;9.27;4.80;;;;;;;;;;5033961;28;20387;-66
2023/01/17 09:30:35;;;;;;;8.67;4.60;;;;;;;;;;5015988;28;20057;-67
2023/01/17 09:33:01;;;;;;;8.17;5.00;;;;;;;;;;5033890;28;20026;-66
2023/01/17 09:35:27;;;;;;;11.93;5.07;;;;;;;;;;5034043;28;20399;-66
2023/01/17 09:37:54;;;;;;;13.00;4.70;;;;;;;;;;5033949;28;20112;-66
2023/01/17 09:40:22;;;;;;;10.57;5.20;;;;;;;;;;5034020;28;20434;-66
2023/01/17 09:42:51;;;;;;;12.37;5.83;;;;;;;;;;5033622;28;20135;-66
2023/01/17 09:45:18;;;;;;;11.20;5.50;;;;;;;;;;5033683;28;20044;-68
2023/01/17 09:47:46;;;;;;;11.90;6.13;;;;;;;;;;5033642;28;20036;-67
2023/01/17 09:50:18;;;;;;;14.80;6.10;;;;;;;;;;5033288;28;20420;-67
2023/01/17 09:52:48;;;;;;;10.25;6.07;;;;;;;;;;5033559;28;20033;-68
2023/01/17 09:55:15;;;;;;;14.40;5.83;;;;;;;;;;5032824;28;20029;-69
2023/01/17 09:57:42;;;;;;;13.27;6.13;;;;;;;;;;5031851;28;20489;-69
2023/01/17 10:00:29;;;;;;;12.27;6.60;;;;;;;;;;5032905;28;20403;-69
2023/01/17 10:03:14;;;;;;;17.80;7.53;;;;;;;;;;5033119;28;20026;-68
2023/01/17 10:05:58;;;;;;;11.87;7.90;;;;;;;;;;5033201;28;20087;-69
2023/01/17 10:08:33;;;;;;;10.23;6.00;;;;;;;;;;5033203;28;20430;-69
2023/01/17 10:11:18;;;;;;;11.03;5.47;;;;;;;;;;5033214;28;20025;-68
2023/01/17 10:13:54;;;;;;;11.57;4.73;;;;;;;;;;5033299;28;20360;-68
2023/01/17 10:16:20;;;;;;;11.03;4.90;;;;;;;;;;5015308;28;20021;-69
2023/01/17 10:19:02;;;;;;;9.37;4.90;;;;;;;;;;5033094;28;20022;-68
2023/01/17 10:21:44;;;;;;;6.50;4.43;;;;;;;;;;5033063;28;20045;-68
2023/01/17 10:24:15;;;;;;;11.23;4.73;;;;;;;;;;5033152;28;20458;-69
2023/01/17 10:26:41;;;;;;;9.70;4.20;;;;;;;;;;5015250;28;20371;-68
2023/01/17 10:29:13;;;;;;;6.93;4.37;;;;;;;;;;5032853;28;20037;-68
2023/01/17 10:31:41;;;;;;;12.80;5.23;;;;;;;;;;5032514;28;20025;-68
2023/01/17 10:34:19;;;;;;;10.10;4.30;;;;;;;;;;5032575;28;20379;-68
2023/01/17 10:36:48;;;;;;;8.80;4.10;;;;;;;;;;5033257;28;20393;-68
2023/01/17 10:39:23;;;;;;;6.53;3.93;;;;;;;;;;5032993;28;20431;-68
2023/01/17 10:41:57;;;;;;;7.83;3.30;;;;;;;;;;5032741;28;20037;-68
2023/01/17 10:44:39;;;;;;;8.00;3.53;;;;;;;;;;5032722;28;20030;-68
2023/01/17 10:47:11;;;;;;;7.90;4.00;;;;;;;;;;5032364;28;20049;-69
2023/01/17 10:49:39;;;;;;;9.77;3.70;;;;;;;;;;5032200;28;20383;-68
2023/01/17 10:52:05;;;;;;;6.23;3.47;;;;;;;;;;5032433;28;20045;-69
2023/01/17 10:54:31;;;;;;;9.37;4.50;;;;;;;;;;5032684;28;20025;-68
2023/01/17 10:56:58;;;;;;;10.60;4.10;;;;;;;;;;5032463;28;20068;-67
2023/01/17 10:59:24;;;;;;;8.43;4.17;;;;;;;;;;5032323;28;20523;-68
2023/01/17 11:01:50;;;;;;;8.47;4.47;;;;;;;;;;5032594;28;20052;-69
2023/01/17 11:04:20;;;;;;;12.43;5.17;;;;;;;;;;5032497;28;20075;-70
2023/01/17 11:06:47;;;;;;;10.17;5.43;;;;;;;;;;5033454;28;20390;-68
2023/01/17 11:09:15;;;;;;;12.83;5.60;;;;;;;;;;5033342;28;20033;-68
2023/01/17 11:11:45;;;;;;;12.13;6.00;;;;;;;;;;5033201;28;20104;-67
2023/01/17 11:14:16;;;;;;;13.93;5.97;;;;;;;;;;5033104;28;20036;-67
2023/01/17 11:16:43;;;;;;;8.00;5.30;;;;;;;;;;5033135;28;20364;-68
2023/01/17 11:19:34;;;;;;;12.60;5.50;;;;;;;;;;5033253;28;20352;-68
2023/01/17 11:22:20;;;;;;;12.83;5.83;;;;;;;;;;5033186;28;20040;-68
2023/01/17 11:25:07;;;;;;;12.83;5.17;;;;;;;;;;5032970;28;20433;-68
2023/01/17 11:27:34;;;;;;;12.33;5.80;;;;;;;;;;5035289;28;20394;-68
2023/01/17 11:30:20;;;;;;;11.47;5.97;;;;;;;;;;5036005;28;20479;-67
2023/01/17 11:33:07;;;;;;;9.00;5.40;;;;;;;;;;5036508;28;20410;-68
2023/01/17 11:35:48;;;;;;;13.43;7.00;;;;;;;;;;5036379;28;20410;-67
2023/01/17 11:38:18;;;;;;;12.57;6.10;;;;;;;;;;5036356;28;20495;-68
2023/01/17 11:40:45;;;;;;;12.77;6.07;;;;;;;;;;5036236;28;20432;-67
2023/01/17 11:43:14;;;;;;;10.67;5.87;;;;;;;;;;5032985;28;20116;-69
2023/01/17 11:45:53;;;;;;;13.47;6.17;;;;;;;;;;5035946;28;20109;-69
2023/01/17 11:48:22;;;;;;;8.77;5.63;;;;;;;;;;5036186;28;20032;-68
2023/01/17 11:51:02;;;;;;;10.93;6.07;;;;;;;;;;5035429;28;20049;-69
2023/01/17 11:53:52;;;;;;;11.90;5.70;;;;;;;;;;5035952;28;20029;-68
2023/01/17 11:56:29;;;;;;;11.47;5.77;;;;;;;;;;5035500;28;20068;-68
2023/01/17 11:59:14;;;;;;;8.43;5.30;;;;;;;;;;5030648;28;20128;-69
2023/01/17 12:02:10;;;;;;;10.17;5.73;;;;;;;;;;5035668;28;20430;-69
2023/01/17 12:04:39;;;;;;;11.30;6.13;;;;;;;;;;5035543;28;20382;-68
2023/01/17 12:07:06;;;;;;;14.83;6.23;;;;;;;;;;5035251;28;20379;-68
2023/01/17 12:09:50;;;;;;;14.67;6.07;;;;;;;;;;5035321;28;20353;-68
2023/01/17 12:15:10;;;;;;;10.07;5.77;;;;;;;;;;5035090;28;20045;-69
2023/01/17 12:17:55;;;;;;;13.88;6.93;;;;;;;;;;5035103;28;20398;-69
2023/01/17 12:20:26;;;;;;;17.90;7.40;;;;;;;;;;5035223;28;20041;-69
2023/01/17 12:22:55;;;;;;;17.57;6.60;;;;;;;;;;5034878;28;20351;-69
2023/01/17 12:37:36;;;;;;;12.50;5.63;;;;;;;;;;6220880;22;1354237;-79
2023/01/17 12:40:21;;;;;;;14.63;6.07;;;;;;;;;;6254090;23;20425;-81
2023/01/17 12:43:18;;;;;;;12.50;5.03;;;;;;;;;;6254261;23;20053;-80
2023/01/17 12:45:46;;;;;;;12.30;5.03;;;;;;;;;;6229252;23;20437;-76
2023/01/17 12:48:16;;;;;;;16.33;5.87;;;;;;;;;;6253296;23;20007;-78
2023/01/17 12:50:48;;;;;;;17.40;5.80;;;;;;;;;;6253742;23;20081;-77
2023/01/17 12:53:19;;;;;;;14.73;5.78;;;;;;;;;;6226916;23;20035;-76
2023/01/17 12:55:50;;;;;;;12.97;5.73;;;;;;;;;;6254042;23;20008;-78
2023/01/17 12:58:27;;;;;;;5.35;3.15;;;;;;;;;;6253925;23;19996;-77
2023/01/17 13:00:59;;;;;;;13.23;4.80;;;;;;;;;;6254059;23;20071;-77
2023/01/17 13:03:41;;;;;;;11.35;2.63;;;;;;;;;;6254148;23;20004;-77
2023/01/17 13:06:08;;;;;;;7.13;2.93;;;;;;;;;;6253819;23;20381;-78
2023/01/17 13:08:45;;;;;;;6.83;3.00;;;;;;;;;;6254226;23;20082;-80
2023/01/17 13:11:11;;;;;;;11.70;3.33;;;;;;;;;;6227121;23;20011;-77
2023/01/17 13:13:38;;;;;;;5.63;2.40;;;;;;;;;;6227093;23;20008;-77
2023/01/17 13:16:11;;;;;;;8.40;2.57;;;;;;;;;;6253799;23;20007;-76
2023/01/17 13:18:42;;;;;;;9.43;3.90;;;;;;;;;;6253710;23;20011;-75
2023/01/17 13:21:14;;;;;;;11.97;3.80;;;;;;;;;;6253943;23;20330;-74
2023/01/17 13:24:00;;;;;;;8.10;3.75;;;;;;;;;;6254042;23;20528;-75
2023/01/17 13:26:45;;;;;;;12.33;4.20;;;;;;;;;;6253724;23;20008;-74
2023/01/17 13:29:26;;;;;;;11.70;4.70;;;;;;;;;;6253180;23;20506;-74
2023/01/17 13:32:11;;;;;;;7.67;4.23;;;;;;;;;;6226051;23;20004;-75
2023/01/17 13:34:40;;;;;;;9.23;4.30;;;;;;;;;;6253128;23;20079;-74
2023/01/17 13:37:06;;;;;;;11.60;3.80;;;;;;;;;;6250200;22;20044;-73
2023/01/17 13:39:38;;;;;;;4.80;2.90;;;;;;;;;;6246609;23;20004;-76
2023/01/17 13:42:23;;;;;;;8.18;3.38;;;;;;;;;;6246766;23;20464;-74
2023/01/17 13:44:49;;;;;;;5.77;3.60;;;;;;;;;;6246565;23;20008;-75
2023/01/17 13:47:18;;;;;;;7.37;4.00;;;;;;;;;;6220205;23;20338;-76
2023/01/17 13:49:47;;;;;;;6.20;3.10;;;;;;;;;;6219668;23;20038;-75
2023/01/17 13:52:19;;;;;;;5.47;2.53;;;;;;;;;;6246683;23;20006;-74
2023/01/17 13:54:47;;;;;;;5.57;1.75;;;;;;;;;;6246301;23;20024;-75
2023/01/17 13:57:25;;;;;;;5.37;1.70;;;;;;;;;;6246642;23;20011;-75
2023/01/17 13:59:55;;;;;;;5.40;1.67;;;;;;;;;;6219224;23;20004;-75
2023/01/17 14:02:37;;;;;;;6.43;1.80;;;;;;;;;;6243455;23;20456;-74
2023/01/17 14:05:16;;;;;;;4.40;2.00;;;;;;;;;;6243569;23;20008;-74
2023/01/17 14:07:46;;;;;;;3.87;2.10;;;;;;;;;;6244586;23;20219;-74
2023/01/17 14:10:22;;;;;;;5.63;3.07;;;;;;;;;;6246017;23;20031;-74
2023/01/17 14:12:48;;;;;;;5.17;2.60;;;;;;;;;;6245958;23;20015;-74
2023/01/17 14:15:25;;;;;;;4.53;3.10;;;;;;;;;;6246583;23;20075;-73
2023/01/17 14:17:54;;;;;;;4.07;2.23;;;;;;;;;;6244145;23;20336;-73
2023/01/17 14:20:27;;;;;;;4.43;1.93;;;;;;;;;;6216319;23;20035;-73
2023/01/17 14:22:58;;;;;;;4.53;1.80;;;;;;;;;;6245006;23;20008;-73
2023/01/17 14:25:25;;;;;;;8.13;1.87;;;;;;;;;;6246321;23;20015;-73
2023/01/17 14:27:53;;;;;;;4.10;2.50;;;;;;;;;;6246176;23;20000;-73
2023/01/17 14:30:22;;;;;;;5.47;3.23;;;;;;;;;;6246511;23;20008;-73
2023/01/17 14:33:00;;;;;;;8.97;5.10;;;;;;;;;;6246520;23;20422;-71
2023/01/17 14:35:28;;;;;;;7.27;4.53;;;;;;;;;;6246374;23;20000;-73
2023/01/17 14:37:56;;;;;;;7.70;4.77;;;;;;;;;;6246451;22;20020;-72
2023/01/17 14:40:29;;;;;;;9.00;4.87;;;;;;;;;;6219588;23;20015;-73
2023/01/17 14:42:55;;;;;;;;;;;;;;;;;;6246682;23;20489;-74
2023/01/17 14:45:25;;;;;;;12.80;4.70;;;;;;;;;;6246193;23;20237;-74
2023/01/17 14:47:52;;;;;;;9.87;5.23;;;;;;;;;;6246429;23;20027;-73
2023/01/17 14:50:22;;;;;;;6.03;4.07;;;;;;;;;;6250860;23;20073;-73
2023/01/17 14:53:07;;;;;;;8.47;3.73;;;;;;;;;;6226525;23;20454;-75
2023/01/17 14:55:33;;;;;;;4.63;3.70;;;;;;;;;;6252075;23;20075;-73
2023/01/17 14:57:59;;;;;;;8.47;3.20;;;;;;;;;;6254333;23;20007;-72
2023/01/17 15:00:28;;;;;;;7.53;3.50;;;;;;;;;;6219698;23;20004;-73
2023/01/17 15:02:54;;;;;;;6.87;3.90;;;;;;;;;;6246563;23;20083;-73
2023/01/17 15:05:21;;;;;;;5.70;4.37;;;;;;;;;;6246284;23;20008;-74
2023/01/17 15:07:49;;;;;;;4.93;3.30;;;;;;;;;;6219227;23;20023;-71
2023/01/17 15:10:16;;;;;;;5.20;3.20;;;;;;;;;;6246007;23;20334;-70
2023/01/17 15:12:45;;;;;;;5.40;3.00;;;;;;;;;;6246353;23;20307;-71
2023/01/17 15:15:31;;;;;;;7.80;2.93;;;;;;;;;;6246627;23;20004;-70
2023/01/17 15:18:08;;;;;;;3.03;2.10;;;;;;;;;;6245852;23;20020;-71
2023/01/17 15:20:35;;;;;;;4.07;1.97;;;;;;;;;;6246110;23;20091;-71
2023/01/17 15:23:02;;;;;;;4.10;2.23;;;;;;;;;;6244734;23;20292;-70
2023/01/17 15:25:28;;;;;;;3.83;2.03;;;;;;;;;;6245927;23;20379;-71
2023/01/17 15:27:54;;;;;;;5.67;3.27;;;;;;;;;;6244550;23;20000;-71
2023/01/17 15:30:23;;;;;;;4.00;3.17;;;;;;;;;;6244014;23;20007;-69
2023/01/17 15:32:50;;;;;;;7.57;4.70;;;;;;;;;;6246069;23;20054;-69
2023/01/17 15:35:19;;;;;;;12.43;6.43;;;;;;;;;;6245780;23;20007;-70
2023/01/17 15:37:50;;;;;;;8.73;4.40;;;;;;;;;;6245107;23;20008;-69
2023/01/17 15:40:21;;;;;;;8.13;3.90;;;;;;;;;;6245453;23;20075;-69
2023/01/17 15:42:51;;;;;;;8.30;4.00;;;;;;;;;;6245762;23;20454;-71
2023/01/17 15:45:19;;;;;;;7.37;4.00;;;;;;;;;;6219009;23;20094;-71
2023/01/17 15:47:45;;;;;;;4.80;3.50;;;;;;;;;;6245958;23;20001;-70
2023/01/17 15:50:38;;;;;;;6.93;4.10;;;;;;;;;;6245576;23;20001;-71
2023/01/17 15:53:09;;;;;;;7.38;5.97;;;;;;;;;;6240954;23;20006;-70
2023/01/17 15:55:39;;;;;;;7.23;5.33;;;;;;;;;;6245439;23;20007;-71
2023/01/17 15:58:21;;;;;;;10.10;4.97;;;;;;;;;;6218710;23;20010;-70
2023/01/17 16:00:47;;;;;;;7.18;4.13;;;;;;;;;;6245460;23;20126;-70
2023/01/17 16:03:20;;;;;;;7.50;4.20;;;;;;;;;;6245119;23;20000;-70
2023/01/17 16:05:46;;;;;;;7.22;3.53;;;;;;;;;;6245496;23;20008;-71
2023/01/17 16:08:15;;;;;;;48.07;30.87;;;;;;;;;;6245058;23;19996;-72
2023/01/17 16:10:42;;;;;;;35.77;22.20;;;;;;;;;;6245322;23;20004;-72
2023/01/17 16:13:09;;;;;;;25.83;18.00;;;;;;;;;;6245143;23;20020;-72
2023/01/17 16:15:36;;;;;;;17.80;14.23;;;;;;;;;;6244748;23;20142;-72
2023/01/17 16:18:02;;;;;;;10.70;7.93;;;;;;;;;;6245492;23;20001;-72
2023/01/17 16:20:40;;;;;;;9.37;6.40;;;;;;;;;;6245309;23;20422;-73
2023/01/17 16:23:06;;;;;;;11.83;8.90;;;;;;;;;;6245455;23;20007;-73
2023/01/17 16:25:32;;;;;;;11.93;7.23;;;;;;;;;;6245251;23;20012;-72
2023/01/17 16:27:59;;;;;;;10.10;6.80;;;;;;;;;;6245196;23;20051;-72
2023/01/17 16:30:25;;;;;;;5.83;4.17;;;;;;;;;;6245475;23;20000;-72
2023/01/17 16:32:51;;;;;;;4.93;4.00;;;;;;;;;;6245307;23;20000;-73
2023/01/17 16:35:19;;;;;;;9.33;4.83;;;;;;;;;;6245481;23;20007;-73
2023/01/17 16:37:55;;;;;;;4.67;2.90;;;;;;;;;;6244625;22;20035;-72
2023/01/17 16:40:23;;;;;;;7.13;5.53;;;;;;;;;;6217955;23;20004;-72
2023/01/17 16:42:49;;;;;;;3.70;3.13;;;;;;;;;;6244973;23;20000;-73